This is the latest recevied weather packets stored in our database for station/object DA2PK. If no packets are shown the sender has not sent any weather packets the latest 10 day(s).
| Time | Temp. | Humidity | Pressure | Rain* | Wind** | Luminosity | Snow |
|---|---|---|---|---|---|---|---|
| 1777783217 | 15° C | 87% | 1011.5 hPa | 0 mm | - | 21 W/m² | - |
| 1777779019 | 15° C | 87% | 1011.8 hPa | 0 mm | - | 0 W/m² | - |
| 1777777819 | 15° C | 87% | 1011.8 hPa | 0 mm | - | 0 W/m² | - |
| 1777777218 | 15° C | 87% | 1011.8 hPa | 0 mm | - | 0 W/m² | - |
| 1777776018 | 15.56° C | 86% | 1012.3 hPa | 0 mm | - | 0 W/m² | - |
| 1777770019 | 15.56° C | 85% | 1012.9 hPa | 0 mm | - | 0 W/m² | - |
| 1777769419 | 15.56° C | 85% | 1013.1 hPa | 0 mm | - | 0 W/m² | - |
| 1777768819 | 15.56° C | 85% | 1013.1 hPa | 0 mm | - | 0 W/m² | - |
| 1777765218 | 16.11° C | 85% | 1014.4 hPa | 0 mm | - | 0 W/m² | - |
| 1777764619 | 16.11° C | 86% | 1014.2 hPa | 0 mm | - | 0 W/m² | - |
| 1777762819 | 16.11° C | 83% | 1013.8 hPa | 0 mm | - | 0 W/m² | - |
| 1777754417 | 16.67° C | 83% | 1014.6 hPa | 2.03 mm | - | 0 W/m² | - |
| 1777753218 | 16.67° C | 83% | 1014.4 hPa | 3.05 mm | - | 0 W/m² | - |
| 1777747819 | 18.33° C | 73% | 1016.2 hPa | 4.06 mm | - | 0 W/m² | - |
| 1777744219 | 21.11° C | 60% | 1014.1 hPa | 0 mm | - | 20 W/m² | - |
| 1777742419 | 21.67° C | 57% | 1014.1 hPa | 0 mm | - | 84 W/m² | - |
| 1777741864 | 21.67° C | 57% | 1014.3 hPa | 0 mm | - | 128 W/m² | - |
| 1777741219 | 21.67° C | 57% | 1014.4 hPa | 0 mm | - | 148 W/m² | - |
| 1777740019 | 22.22° C | 55% | 1014.5 hPa | 0 mm | - | 158 W/m² | - |
| 1777732819 | 20.56° C | 67% | 1016.6 hPa | 0.25 mm | - | 48 W/m² | - |
| 1777731019 | 22.22° C | 53% | 1016.8 hPa | 0 mm | - | 60 W/m² | - |
| 1777727418 | 23.89° C | 47% | 1017.1 hPa | 0 mm | - | 289 W/m² | - |
| 1777719038 | 21.11° C | 49% | 1018.5 hPa | 0 mm | - | 604 W/m² | - |
| 1777714217 | 20° C | 46% | 1019.2 hPa | 0 mm | - | 487 W/m² | - |
| 1777713618 | 20° C | 46% | 1019.5 hPa | 0 mm | - | 522 W/m² | - |
* Rain latest hour (hover to see other rain measurements)
** Current wind speed in m/s (hover to see current wind gust speed)